Time;durP1;ratioP1;P1;durP2;ratioP2;P2;SDS_P1;SDS_P2;PMS_P1;PMS_P2;Temp;Humidity;BMP_temperature;BMP_pressure;BME280_temperature;BME280_humidity;BME280_pressure;Samples;Min_cycle;Max_cycle;Signal;HPM_P1;HPM_P2
2022/09/03 00:02:02;;;;;;;1.40;1.07;;;15.00;18.30;;;;;;5034023;28;20176;-79
2022/09/03 00:04:46;;;;;;;1.50;1.00;;;15.70;1.00;;;;;;5032861;28;20157;-79
2022/09/03 00:07:30;;;;;;;1.57;1.13;;;15.00;1.00;;;;;;5032195;28;20180;-79
2022/09/03 00:10:03;;;;;;;2.43;0.93;;;14.90;1.00;;;;;;5032818;28;20189;-80
2022/09/03 00:12:33;;;;;;;1.40;0.80;;;15.90;1.00;;;;;;5031429;28;20654;-80
2022/09/03 00:15:06;;;;;;;2.23;1.00;;;15.40;1.00;;;;;;5030023;28;20173;-79
2022/09/03 00:17:41;;;;;;;3.93;1.20;;;14.90;1.00;;;;;;5032380;28;20196;-79
2022/09/03 00:20:15;;;;;;;2.43;1.20;;;14.90;1.00;;;;;;5031604;28;20199;-79
2022/09/03 00:22:53;;;;;;;4.97;1.10;;;14.90;1.00;;;;;;5032428;28;20235;-79
2022/09/03 00:25:38;;;;;;;1.20;1.00;;;14.80;8.90;;;;;;5032504;28;20168;-79
2022/09/03 00:28:12;;;;;;;1.60;1.13;;;15.40;99.90;;;;;;5030697;28;20197;-80
2022/09/03 00:30:40;;;;;;;2.47;1.00;;;15.80;99.90;;;;;;5031448;28;20228;-79
2022/09/03 00:33:21;;;;;;;2.47;1.13;;;15.00;99.90;;;;;;5031367;28;20212;-79
2022/09/03 00:35:55;;;;;;;2.40;1.23;;;15.80;99.90;;;;;;5011848;28;20172;-79
2022/09/03 00:38:21;;;;;;;2.93;1.10;;;14.80;99.90;;;;;;4995560;28;20264;-79
2022/09/03 00:41:05;;;;;;;2.47;1.30;;;14.80;38.40;;;;;;5011831;28;20177;-79
2022/09/03 00:43:49;;;;;;;1.00;0.90;;;14.80;26.90;;;;;;5012167;28;20165;-79
2022/09/03 00:46:33;;;;;;;2.30;0.80;;;14.80;99.90;;;;;;5012000;28;20188;-79
2022/09/03 00:49:21;;;;;;;1.40;0.90;;;14.70;99.90;;;;;;5012099;28;20232;-79
2022/09/03 00:52:02;;;;;;;1.37;1.03;;;14.70;90.20;;;;;;5010645;28;20245;-79
2022/09/03 00:55:00;;;;;;;0.93;0.83;;;14.60;23.90;;;;;;5012021;28;20182;-79
2022/09/03 00:58:01;;;;;;;1.63;1.07;;;14.70;1.00;;;;;;5011526;28;20158;-80
2022/09/03 01:00:28;;;;;;;3.87;1.13;;;14.70;1.00;;;;;;4995941;28;20196;-79
2022/09/03 01:03:13;;;;;;;1.90;1.30;;;14.90;1.00;;;;;;5011760;28;20174;-79
2022/09/03 01:06:04;;;;;;;1.70;0.70;;;14.70;1.00;;;;;;5013115;28;20185;-80
2022/09/03 01:08:49;;;;;;;2.57;1.07;;;14.60;1.00;;;;;;5031141;28;20209;-79
2022/09/03 01:11:35;;;;;;;2.57;1.17;;;15.20;1.00;;;;;;5030096;28;20195;-79
2022/09/03 01:14:21;;;;;;;3.47;1.07;;;14.70;1.00;;;;;;5030143;28;20156;-79
2022/09/03 01:17:02;;;;;;;1.50;1.00;;;14.60;1.00;;;;;;5031635;28;20200;-79
2022/09/03 01:19:51;;;;;;;1.77;0.90;;;14.60;1.00;;;;;;5031048;28;20196;-79
2022/09/03 01:22:34;;;;;;;3.03;1.10;;;14.60;14.70;;;;;;5028998;28;20565;-79
2022/09/03 01:25:17;;;;;;;1.80;1.00;;;14.60;1.00;;;;;;5031556;28;20168;-79
2022/09/03 01:28:00;;;;;;;1.67;1.03;;;14.60;1.00;;;;;;5030941;28;20199;-79
2022/09/03 01:30:30;;;;;;;1.73;1.07;;;14.60;1.00;;;;;;5029202;28;20185;-80
2022/09/03 01:33:07;;;;;;;5.80;1.20;;;14.50;1.00;;;;;;5031174;28;20173;-79
2022/09/03 01:35:42;;;;;;;2.30;0.80;;;14.50;1.00;;;;;;5031084;28;20223;-79
2022/09/03 01:38:41;;;;;;;3.97;1.00;;;14.50;1.00;;;;;;5030022;28;20192;-80
2022/09/03 01:44:47;;;;;;;1.47;1.00;;;14.50;1.00;;;;;;5029878;28;20216;-79
2022/09/03 01:47:24;;;;;;;0.87;0.73;;;14.50;1.00;;;;;;5031032;28;20153;-79
2022/09/03 01:50:06;;;;;;;1.93;0.90;;;14.40;1.00;;;;;;5030429;28;20208;-79
2022/09/03 01:52:58;;;;;;;4.00;1.13;;;14.40;1.00;;;;;;5029478;28;20183;-80
2022/09/03 01:55:23;;;;;;;1.40;1.00;;;13.70;1.00;;;;;;5030812;28;20154;-79
2022/09/03 01:57:55;;;;;;;1.47;1.10;;;14.40;1.00;;;;;;5030143;28;20185;-80
2022/09/03 02:00:22;;;;;;;1.33;0.90;;;15.50;1.00;;;;;;5027377;28;20196;-79
2022/09/03 02:02:50;;;;;;;1.20;0.90;;;14.30;1.00;;;;;;5028742;28;20192;-79
2022/09/03 02:05:19;;;;;;;2.03;1.00;;;14.30;1.00;;;;;;5029688;28;20212;-79
2022/09/03 02:08:06;;;;;;;3.00;1.10;;;14.30;1.00;;;;;;5029294;28;20243;-79
2022/09/03 02:10:37;;;;;;;1.10;0.83;;;14.70;1.00;;;;;;5029950;28;20157;-80
2022/09/03 02:13:35;;;;;;;2.40;1.00;;;14.40;1.00;;;;;;5030264;28;20161;-79
2022/09/03 02:16:10;;;;;;;3.67;1.17;;;14.30;1.00;;;;;;5028239;28;20212;-78
2022/09/03 02:18:40;;;;;;;1.20;1.00;;;14.30;1.00;;;;;;5028714;28;20210;-79
2022/09/03 02:21:06;;;;;;;2.33;0.90;;;15.30;1.00;;;;;;5029377;28;20157;-79
2022/09/03 02:23:32;;;;;;;2.10;0.80;;;14.20;1.00;;;;;;5030427;28;20169;-79
2022/09/03 02:26:00;;;;;;;0.87;0.70;;;14.20;1.00;;;;;;5029467;28;20176;-79
2022/09/03 02:28:28;;;;;;;0.70;0.70;;;14.20;1.00;;;;;;5029705;28;20263;-79
2022/09/03 02:30:53;;;;;;;0.87;0.80;;;14.10;1.00;;;;;;5028627;28;20183;-79
2022/09/03 02:33:19;;;;;;;0.97;0.77;;;14.70;1.00;;;;;;5029946;28;20185;-79
2022/09/03 02:35:46;;;;;;;1.00;0.70;;;14.10;1.00;;;;;;5032689;28;20184;-79
2022/09/03 02:38:20;;;;;;;3.03;0.73;;;14.10;1.00;;;;;;5029467;28;20197;-79
2022/09/03 02:40:46;;;;;;;1.47;1.17;;;14.10;1.00;;;;;;5029905;28;20177;-80
2022/09/03 02:43:40;;;;;;;1.83;0.70;;;15.30;1.00;;;;;;5029673;28;20187;-79
2022/09/03 02:46:11;;;;;;;1.23;0.70;;;14.00;1.00;;;;;;5028190;28;20256;-79
2022/09/03 02:48:37;;;;;;;0.97;0.70;;;14.40;1.00;;;;;;5029016;28;20224;-80
2022/09/03 02:51:03;;;;;;;1.17;0.80;;;13.90;1.00;;;;;;5029867;28;20181;-79
2022/09/03 02:53:28;;;;;;;3.20;1.00;;;13.90;1.00;;;;;;5032473;28;20176;-79
2022/09/03 02:56:00;;;;;;;0.63;0.63;;;13.90;1.00;;;;;;5034075;28;20173;-79
2022/09/03 02:58:27;;;;;;;2.07;0.70;;;13.90;1.00;;;;;;5033438;28;20220;-79
2022/09/03 03:00:53;;;;;;;1.40;0.80;;;13.90;1.00;;;;;;5033526;28;20180;-79
2022/09/03 03:03:19;;;;;;;2.37;1.20;;;13.90;18.10;;;;;;5032529;28;20188;-79
2022/09/03 03:05:46;;;;;;;1.20;0.80;;;13.90;99.90;;;;;;5033183;28;20177;-79
2022/09/03 03:08:13;;;;;;;1.73;0.83;;;13.90;85.40;;;;;;5032417;28;20223;-79
2022/09/03 03:10:43;;;;;;;2.40;0.93;;;13.90;99.90;;;;;;5033675;28;20169;-79
2022/09/03 03:13:09;;;;;;;1.37;1.00;;;13.80;99.90;;;;;;5033651;28;20181;-79
2022/09/03 03:15:34;;;;;;;1.07;0.93;;;13.80;99.90;;;;;;5034162;28;20180;-80
2022/09/03 03:18:00;;;;;;;1.53;0.80;;;13.80;99.90;;;;;;5033904;28;20185;-78
2022/09/03 03:20:25;;;;;;;0.60;0.60;;;13.80;99.90;;;;;;5030564;28;20212;-79
2022/09/03 03:22:51;;;;;;;1.50;1.10;;;13.80;99.90;;;;;;5032054;28;20212;-79
2022/09/03 03:25:16;;;;;;;1.47;0.80;;;13.80;99.90;;;;;;5031656;28;20246;-78
2022/09/03 03:27:42;;;;;;;1.17;0.80;;;13.70;99.90;;;;;;5032108;28;20193;-79
2022/09/03 03:30:09;;;;;;;0.70;0.70;;;14.00;99.90;;;;;;5030882;28;20219;-79
2022/09/03 03:32:38;;;;;;;1.00;0.90;;;13.60;99.90;;;;;;5032656;28;20173;-79
2022/09/03 03:35:05;;;;;;;3.47;1.03;;;14.60;99.90;;;;;;5033098;28;20197;-79
2022/09/03 03:37:34;;;;;;;0.97;0.90;;;13.60;99.90;;;;;;5031370;28;20250;-79
2022/09/03 03:39:59;;;;;;;2.13;1.10;;;13.60;99.90;;;;;;5032279;28;20192;-79
2022/09/03 03:42:25;;;;;;;1.27;0.90;;;13.50;99.90;;;;;;5031927;28;20223;-79
2022/09/03 03:44:51;;;;;;;0.80;0.80;;;13.60;1.00;;;;;;5032448;28;20199;-79
2022/09/03 03:47:17;;;;;;;0.90;0.70;;;13.50;1.00;;;;;;5033274;28;20211;-79
2022/09/03 03:49:43;;;;;;;1.77;1.07;;;13.40;1.00;;;;;;5032644;28;20192;-79
2022/09/03 03:52:08;;;;;;;1.07;0.90;;;13.20;1.00;;;;;;5032456;28;20173;-79
2022/09/03 03:54:34;;;;;;;0.70;0.70;;;13.40;1.00;;;;;;5031933;28;20209;-79
2022/09/03 03:56:59;;;;;;;0.90;0.77;;;14.00;1.00;;;;;;5031878;28;20184;-79
2022/09/03 03:59:25;;;;;;;1.10;1.00;;;13.40;1.00;;;;;;5030055;28;20208;-80
2022/09/03 04:01:53;;;;;;;2.10;0.97;;;13.30;1.00;;;;;;5031699;28;20181;-78
2022/09/03 04:04:18;;;;;;;1.77;0.77;;;13.30;1.00;;;;;;5030738;28;20207;-79
2022/09/03 04:06:44;;;;;;;1.10;1.00;;;13.30;1.00;;;;;;5031585;28;20196;-78
2022/09/03 04:09:09;;;;;;;1.00;0.80;;;13.40;1.00;;;;;;5030822;28;20222;-79
2022/09/03 04:11:35;;;;;;;1.13;0.80;;;13.70;1.00;;;;;;5031453;28;20244;-79
2022/09/03 04:14:02;;;;;;;0.90;0.87;;;13.20;1.00;;;;;;5030816;28;20181;-78
2022/09/03 04:16:28;;;;;;;0.80;0.70;;;12.70;1.00;;;;;;5030062;28;20181;-80
2022/09/03 04:18:55;;;;;;;3.30;0.93;;;13.20;1.00;;;;;;5030395;28;20269;-79
2022/09/03 04:21:26;;;;;;;1.00;0.83;;;13.20;1.00;;;;;;5030784;28;20177;-79
2022/09/03 04:23:52;;;;;;;1.73;1.07;;;13.10;1.00;;;;;;5030615;28;20170;-79
2022/09/03 04:26:24;;;;;;;1.53;1.07;;;13.20;1.00;;;;;;5031700;28;20184;-79
2022/09/03 04:28:50;;;;;;;1.70;1.07;;;13.10;1.00;;;;;;5031550;28;20224;-78
2022/09/03 04:31:17;;;;;;;9.07;1.17;;;13.10;1.00;;;;;;5029901;28;20189;-80
2022/09/03 04:33:43;;;;;;;1.40;0.93;;;13.00;96.20;;;;;;5015605;28;20181;-79
2022/09/03 04:36:20;;;;;;;2.20;1.00;;;14.50;99.90;;;;;;5031326;28;20194;-78
2022/09/03 04:38:48;;;;;;;1.27;1.03;;;13.30;99.90;;;;;;5031441;28;20279;-79
2022/09/03 04:41:17;;;;;;;3.00;0.90;;;13.10;99.90;;;;;;5030711;28;20181;-79
2022/09/03 04:43:42;;;;;;;2.00;1.00;;;13.30;99.90;;;;;;5030538;28;20187;-79
2022/09/03 04:46:10;;;;;;;1.93;1.03;;;13.50;1.00;;;;;;5031469;28;20176;-79
2022/09/03 04:48:36;;;;;;;0.87;0.83;;;13.00;1.00;;;;;;5028477;28;20221;-79
2022/09/03 04:51:09;;;;;;;1.20;0.90;;;13.10;1.00;;;;;;5030202;28;20227;-79
2022/09/03 04:53:37;;;;;;;3.70;1.30;;;13.00;1.00;;;;;;5033908;28;20240;-79
2022/09/03 04:56:30;;;;;;;3.20;0.93;;;13.00;1.00;;;;;;5031959;28;20177;-79
2022/09/03 04:58:57;;;;;;;2.30;0.90;;;13.00;1.00;;;;;;5030302;28;20201;-79
2022/09/03 05:01:26;;;;;;;3.90;1.10;;;13.00;1.00;;;;;;5029224;28;20272;-79
2022/09/03 05:03:51;;;;;;;1.10;1.00;;;13.30;20.00;;;;;;5028669;28;20256;-79
2022/09/03 05:06:17;;;;;;;1.07;1.00;;;12.90;99.90;;;;;;5030401;28;20180;-79
2022/09/03 05:08:49;;;;;;;1.80;1.00;;;14.40;7.60;;;;;;5030886;28;20227;-79
2022/09/03 05:11:15;;;;;;;2.13;1.10;;;12.90;1.00;;;;;;5029499;28;20180;-79
2022/09/03 05:13:41;;;;;;;1.23;1.10;;;12.90;1.00;;;;;;5029730;28;20187;-79
2022/09/03 05:16:11;;;;;;;2.30;1.40;;;12.90;3.00;;;;;;5028501;28;20177;-79
2022/09/03 05:18:38;;;;;;;2.23;1.00;;;13.00;7.20;;;;;;5026940;28;20213;-80
2022/09/03 05:21:12;;;;;;;1.63;1.10;;;12.90;1.00;;;;;;5027541;28;20181;-79
2022/09/03 05:23:46;;;;;;;1.90;1.00;;;13.00;57.30;;;;;;5030212;28;20176;-79
2022/09/03 05:26:17;;;;;;;2.27;1.20;;;12.90;37.30;;;;;;5029907;28;20165;-79
2022/09/03 05:28:44;;;;;;;3.50;1.20;;;12.90;99.90;;;;;;5029967;28;20283;-80
2022/09/03 05:31:17;;;;;;;2.17;1.20;;;12.90;99.90;;;;;;5027640;28;20219;-79
2022/09/03 05:33:49;;;;;;;2.23;1.30;;;12.90;99.90;;;;;;5028401;28;20183;-79
2022/09/03 05:36:16;;;;;;;0.93;0.87;;;12.90;99.90;;;;;;5029531;28;20196;-79
2022/09/03 05:38:42;;;;;;;2.03;1.10;;;12.90;99.90;;;;;;5029689;28;20193;-79
2022/09/03 05:41:10;;;;;;;1.50;1.07;;;12.90;99.90;;;;;;5030602;28;20180;-79
2022/09/03 05:43:36;;;;;;;2.23;1.20;;;12.90;99.90;;;;;;5027947;28;20195;-79
2022/09/03 05:46:05;;;;;;;1.40;0.97;;;13.40;99.90;;;;;;5029153;28;20182;-78
2022/09/03 05:48:32;;;;;;;2.53;0.90;;;12.90;99.90;;;;;;5027718;28;20279;-79
2022/09/03 05:51:10;;;;;;;1.50;1.00;;;12.90;99.90;;;;;;5022922;28;20181;-79
2022/09/03 05:53:37;;;;;;;2.20;1.30;;;13.00;1.00;;;;;;5015832;28;20181;-78
2022/09/03 05:56:07;;;;;;;1.53;1.10;;;13.00;1.00;;;;;;5000181;28;20180;-79
2022/09/03 05:58:34;;;;;;;2.80;1.20;;;13.00;1.00;;;;;;5004930;28;20216;-79
2022/09/03 06:01:09;;;;;;;2.57;1.10;;;13.00;1.00;;;;;;5020356;28;20244;-78
2022/09/03 06:03:35;;;;;;;3.80;1.20;;;13.10;1.00;;;;;;5017870;28;20200;-78
2022/09/03 06:06:00;;;;;;;4.63;1.20;;;13.10;1.00;;;;;;5020696;28;20299;-77
2022/09/03 06:08:26;;;;;;;3.03;1.50;;;13.10;1.00;;;;;;5018676;28;20215;-79
2022/09/03 06:10:58;;;;;;;1.97;1.30;;;13.10;1.00;;;;;;5019739;28;20173;-78
2022/09/03 06:13:23;;;;;;;1.23;1.07;;;13.10;1.00;;;;;;5020326;28;20701;-78
2022/09/03 06:15:49;;;;;;;1.93;1.20;;;13.20;1.00;;;;;;5019615;28;20194;-77
2022/09/03 06:18:14;;;;;;;1.37;1.03;;;13.20;1.00;;;;;;5019637;28;20646;-78
2022/09/03 06:20:40;;;;;;;1.60;1.10;;;13.20;1.00;;;;;;5021204;28;20268;-78
2022/09/03 06:23:05;;;;;;;1.50;1.40;;;13.30;1.00;;;;;;5026495;28;20662;-79
2022/09/03 06:25:31;;;;;;;1.47;1.10;;;13.30;1.00;;;;;;5029265;28;20184;-79
2022/09/03 06:27:57;;;;;;;1.53;1.43;;;13.70;1.00;;;;;;5031138;28;20211;-79
2022/09/03 06:30:25;;;;;;;2.03;1.10;;;13.40;1.00;;;;;;5033826;28;20192;-79
2022/09/03 06:32:51;;;;;;;2.27;1.50;;;14.00;1.00;;;;;;5033520;28;20180;-79
2022/09/03 06:35:17;;;;;;;1.53;1.23;;;13.60;1.00;;;;;;5031143;28;20207;-78
2022/09/03 06:37:42;;;;;;;1.87;1.20;;;13.60;39.00;;;;;;5031709;28;20180;-78
2022/09/03 06:40:12;;;;;;;1.83;1.23;;;13.70;1.00;;;;;;5031408;28;20250;-78
2022/09/03 06:42:41;;;;;;;2.00;1.13;;;13.80;99.90;;;;;;5031127;28;20252;-79
2022/09/03 06:45:10;;;;;;;3.73;1.20;;;13.80;72.90;;;;;;5032453;28;20173;-79
2022/09/03 06:47:36;;;;;;;2.37;1.40;;;13.90;31.20;;;;;;5037423;28;20212;-78
2022/09/03 06:50:02;;;;;;;2.83;1.23;;;14.00;1.00;;;;;;5034567;28;20189;-78
2022/09/03 06:52:28;;;;;;;3.27;1.17;;;14.10;14.60;;;;;;5033920;28;20165;-78
2022/09/03 06:54:54;;;;;;;4.10;1.10;;;14.30;1.00;;;;;;5029688;28;20184;-77
2022/09/03 06:57:19;;;;;;;3.07;0.80;;;14.30;1.00;;;;;;5032076;28;20173;-79
2022/09/03 06:59:45;;;;;;;3.10;1.20;;;14.90;99.90;;;;;;5030192;28;20243;-79
2022/09/03 07:02:11;;;;;;;2.50;1.27;;;14.50;16.90;;;;;;5028679;28;20546;-78
2022/09/03 07:04:36;;;;;;;2.93;1.03;;;14.70;99.70;;;;;;5028890;28;20205;-79
2022/09/03 07:07:02;;;;;;;3.67;1.00;;;14.80;99.90;;;;;;5031600;28;20544;-78
2022/09/03 07:09:28;;;;;;;1.43;1.03;;;14.90;1.00;;;;;;5031336;28;20209;-79
2022/09/03 07:11:54;;;;;;;1.10;0.90;;;15.00;47.10;;;;;;5035100;28;20208;-78
2022/09/03 07:14:21;;;;;;;6.13;1.33;;;15.30;99.90;;;;;;5031940;28;20189;-78
2022/09/03 07:16:48;;;;;;;3.87;1.07;;;15.20;1.00;;;;;;5029671;28;20177;-78
2022/09/03 07:19:14;;;;;;;1.47;0.87;;;15.40;99.90;;;;;;5026793;28;20215;-78
2022/09/03 07:21:40;;;;;;;2.33;1.00;;;15.50;1.00;;;;;;5025931;28;20639;-78
2022/09/03 07:24:07;;;;;;;1.77;0.90;;;15.70;1.00;;;;;;5027910;28;20204;-78
2022/09/03 07:26:39;;;;;;;1.77;0.70;;;15.90;1.00;;;;;;5026948;28;20595;-78
2022/09/03 07:29:06;;;;;;;1.50;0.80;;;16.10;1.00;;;;;;5027839;28;20212;-78
2022/09/03 07:31:35;;;;;;;4.83;0.90;;;16.20;99.90;;;;;;5028922;28;20172;-79
2022/09/03 07:34:09;;;;;;;1.37;0.80;;;16.30;99.90;;;;;;5030791;28;20177;-79
2022/09/03 07:36:37;;;;;;;2.93;1.10;;;16.10;99.90;;;;;;5031049;28;20157;-78
2022/09/03 07:39:03;;;;;;;0.60;0.60;;;16.70;98.40;;;;;;5030603;28;20224;-79
2022/09/03 07:41:31;;;;;;;1.60;0.80;;;17.40;1.00;;;;;;5029933;28;20176;-78
2022/09/03 07:43:58;;;;;;;1.43;0.90;;;17.00;1.00;;;;;;5027484;28;20188;-78
2022/09/03 07:46:25;;;;;;;2.93;0.70;;;17.10;1.00;;;;;;5025277;28;20180;-78
2022/09/03 07:48:53;;;;;;;1.03;0.83;;;17.20;1.00;;;;;;5024012;28;20217;-77
2022/09/03 07:51:22;;;;;;;2.40;0.90;;;17.40;1.00;;;;;;5029972;28;20245;-77
2022/09/03 07:53:50;;;;;;;0.80;0.80;;;17.40;1.00;;;;;;5029592;28;20181;-78
2022/09/03 07:56:16;;;;;;;1.30;0.83;;;17.60;1.00;;;;;;5031288;28;20174;-77
2022/09/03 07:58:42;;;;;;;1.10;0.63;;;17.70;99.90;;;;;;5029411;28;20272;-78
2022/09/03 08:01:13;;;;;;;1.90;0.80;;;17.90;99.90;;;;;;5030389;28;20173;-77
2022/09/03 08:03:43;;;;;;;0.93;0.70;;;17.80;99.90;;;;;;5028973;28;20189;-78
2022/09/03 08:06:11;;;;;;;3.00;0.70;;;18.10;1.00;;;;;;5028090;28;20256;-78
2022/09/03 08:08:37;;;;;;;0.97;0.80;;;18.10;99.90;;;;;;5028446;28;20213;-77
2022/09/03 08:11:09;;;;;;;0.90;0.70;;;18.20;99.90;;;;;;5027992;28;20260;-77
2022/09/03 08:13:47;;;;;;;0.90;0.73;;;18.30;99.90;;;;;;5011199;28;20176;-78
2022/09/03 08:16:15;;;;;;;1.30;0.80;;;18.40;99.90;;;;;;5028097;28;20154;-78
2022/09/03 08:18:41;;;;;;;0.87;0.67;;;18.50;99.90;;;;;;5027141;28;20196;-77
2022/09/03 08:21:09;;;;;;;0.70;0.70;;;18.60;99.90;;;;;;5027064;28;20177;-77
2022/09/03 08:23:41;;;;;;;2.40;1.00;;;18.70;99.90;;;;;;5027399;28;20181;-77
2022/09/03 08:26:08;;;;;;;2.73;1.10;;;18.20;99.90;;;;;;5027115;28;20192;-78
2022/09/03 08:28:35;;;;;;;1.60;0.90;;;19.00;1.00;;;;;;5025128;28;20212;-78
2022/09/03 08:31:10;;;;;;;1.10;1.00;;;19.10;1.00;;;;;;5027282;28;20169;-77
2022/09/03 08:33:37;;;;;;;4.37;0.90;;;19.20;1.00;;;;;;5025192;28;20176;-77
2022/09/03 08:36:14;;;;;;;1.43;1.00;;;19.40;2.20;;;;;;5026670;28;20165;-77
2022/09/03 08:38:42;;;;;;;3.53;0.90;;;19.40;1.00;;;;;;5025835;28;20272;-77
2022/09/03 08:41:32;;;;;;;1.67;1.00;;;19.40;1.00;;;;;;5026175;28;20200;-78
2022/09/03 08:44:16;;;;;;;1.73;1.10;;;19.50;1.00;;;;;;5026039;28;20160;-77
2022/09/03 08:46:54;;;;;;;1.63;0.87;;;19.60;1.00;;;;;;5024869;28;20599;-77
2022/09/03 08:49:55;;;;;;;2.90;0.90;;;19.70;1.00;;;;;;5023942;28;20284;-78
2022/09/03 08:52:30;;;;;;;0.90;0.60;;;19.80;1.00;;;;;;5002841;28;20218;-77
2022/09/03 08:55:12;;;;;;;1.00;0.83;;;19.90;1.00;;;;;;5023621;28;20199;-77
2022/09/03 08:57:46;;;;;;;4.03;0.80;;;20.00;1.00;;;;;;5023462;28;20231;-77
2022/09/03 09:00:12;;;;;;;2.40;0.80;;;20.60;1.00;;;;;;5024635;28;20619;-77
2022/09/03 09:03:03;;;;;;;0.67;0.60;;;20.20;1.00;;;;;;5025333;28;20181;-77
2022/09/03 09:05:29;;;;;;;4.10;1.00;;;20.20;1.00;;;;;;5026419;28;20166;-78
2022/09/03 09:08:07;;;;;;;1.77;0.80;;;20.50;1.00;;;;;;5026775;28;20201;-76
2022/09/03 09:10:53;;;;;;;3.10;0.87;;;20.40;1.00;;;;;;5026514;28;20165;-76
2022/09/03 09:13:26;;;;;;;1.00;0.70;;;20.50;1.00;;;;;;5015303;28;20195;-77
2022/09/03 09:16:02;;;;;;;2.30;0.93;;;20.50;1.00;;;;;;5026467;28;20176;-77
2022/09/03 09:18:52;;;;;;;2.60;1.00;;;20.50;1.00;;;;;;5024135;28;20200;-78
2022/09/03 09:21:44;;;;;;;1.43;0.80;;;20.90;1.00;;;;;;5024107;28;20260;-77
2022/09/03 09:24:22;;;;;;;1.47;1.00;;;20.70;1.00;;;;;;5024814;28;20593;-77
2022/09/03 09:26:48;;;;;;;1.90;1.00;;;20.70;1.00;;;;;;5024848;28;20157;-77
2022/09/03 09:29:14;;;;;;;2.60;0.80;;;21.20;1.00;;;;;;5024511;28;20212;-77
2022/09/03 09:31:44;;;;;;;1.03;0.90;;;20.90;1.00;;;;;;5022640;28;20173;-77
2022/09/03 09:34:10;;;;;;;1.00;0.90;;;20.80;1.00;;;;;;5024802;28;20208;-76
2022/09/03 09:36:56;;;;;;;2.23;0.93;;;20.90;1.00;;;;;;5024124;28;20263;-77
2022/09/03 09:39:22;;;;;;;1.43;0.90;;;20.90;1.00;;;;;;5023975;28;20243;-77
2022/09/03 09:42:20;;;;;;;2.63;1.10;;;20.90;1.00;;;;;;5024659;28;20181;-77
2022/09/03 09:44:45;;;;;;;1.73;0.90;;;21.10;1.00;;;;;;5016418;28;20196;-77
2022/09/03 09:47:21;;;;;;;1.03;0.80;;;21.00;1.00;;;;;;5024505;28;20188;-77
2022/09/03 09:49:54;;;;;;;1.57;0.93;;;21.10;1.00;;;;;;5024242;28;20196;-77
2022/09/03 09:52:24;;;;;;;1.63;0.83;;;21.20;1.00;;;;;;5024159;28;20207;-77
2022/09/03 09:54:52;;;;;;;1.87;0.87;;;21.40;1.00;;;;;;5024427;28;20145;-77
2022/09/03 09:57:22;;;;;;;4.93;0.97;;;21.50;1.00;;;;;;5023685;28;20165;-77
2022/09/03 09:59:51;;;;;;;2.10;1.30;;;21.60;1.00;;;;;;5023964;28;20189;-77
2022/09/03 10:02:28;;;;;;;3.13;0.93;;;21.60;1.00;;;;;;5023006;28;20191;-77
2022/09/03 10:05:11;;;;;;;1.90;0.90;;;21.70;1.00;;;;;;5023335;28;20235;-77
2022/09/03 10:07:37;;;;;;;1.40;1.10;;;21.80;1.00;;;;;;5021882;28;20212;-77
2022/09/03 10:10:13;;;;;;;4.30;0.80;;;22.00;1.00;;;;;;5023174;28;20216;-77
2022/09/03 10:12:45;;;;;;;1.20;0.90;;;21.90;1.00;;;;;;5023170;28;20164;-77
2022/09/03 10:15:45;;;;;;;3.57;1.10;;;21.90;1.00;;;;;;5024128;28;20165;-77
2022/09/03 10:18:36;;;;;;;1.10;0.80;;;22.00;1.00;;;;;;5021108;28;20208;-77
2022/09/03 10:21:24;;;;;;;4.17;1.10;;;22.10;1.00;;;;;;5025040;28;20192;-77
2022/09/03 10:24:04;;;;;;;1.30;1.00;;;22.20;1.00;;;;;;5026130;28;20173;-77
2022/09/03 10:26:31;;;;;;;3.10;1.00;;;22.20;1.00;;;;;;5026816;28;20165;-77
2022/09/03 10:29:00;;;;;;;2.23;0.80;;;22.30;1.00;;;;;;5030634;23;20306;-92
2022/09/03 10:31:44;;;;;;;1.00;0.83;;;22.40;1.00;;;;;;5012764;28;20193;-91
2022/09/03 10:34:23;;;;;;;1.47;1.00;;;22.50;1.00;;;;;;5013277;28;20600;-91
2022/09/03 10:37:18;;;;;;;2.70;1.10;;;22.50;1.00;;;;;;5013261;28;20169;-91
2022/09/03 10:40:04;;;;;;;1.30;1.10;;;22.70;1.00;;;;;;5014788;28;20193;-91
2022/09/03 10:42:51;;;;;;;2.47;1.10;;;22.90;1.00;;;;;;5038649;23;20716;-78
2022/09/03 10:45:38;;;;;;;1.10;0.90;;;22.90;99.90;;;;;;5015363;28;20157;-78
2022/09/03 10:48:42;;;;;;;1.53;1.10;;;22.90;99.90;;;;;;5013108;28;20197;-77
2022/09/03 10:51:22;;;;;;;3.27;1.07;;;22.90;99.90;;;;;;4953749;29;20171;-78
2022/09/03 10:53:53;;;;;;;1.03;0.90;;;23.00;99.90;;;;;;4954100;29;20720;-78
2022/09/03 10:56:31;;;;;;;1.10;1.00;;;23.00;99.90;;;;;;5025586;22;20304;-82
2022/09/03 10:59:19;;;;;;;4.00;1.27;;;22.90;99.90;;;;;;5043182;28;20168;-83
2022/09/03 11:01:58;;;;;;;1.40;1.07;;;22.90;1.00;;;;;;5043769;28;20157;-83
2022/09/03 11:04:43;;;;;;;3.03;1.30;;;22.70;1.00;;;;;;5041054;28;20164;-82
2022/09/03 11:07:12;;;;;;;2.10;1.57;;;22.80;1.00;;;;;;5042110;28;20223;-82
2022/09/03 11:09:52;;;;;;;0.87;0.83;;;22.80;1.00;;;;;;5041417;28;20192;-82
2022/09/03 11:12:33;;;;;;;3.27;1.30;;;22.80;1.00;;;;;;5040570;28;20165;-82
2022/09/03 11:15:04;;;;;;;1.70;1.20;;;22.90;1.00;;;;;;5060218;28;20165;-82
2022/09/03 11:17:41;;;;;;;2.60;1.23;;;23.10;1.00;;;;;;5043794;28;20196;-82
2022/09/03 11:20:21;;;;;;;2.37;1.30;;;23.00;1.00;;;;;;5059414;28;20592;-82
2022/09/03 11:22:49;;;;;;;6.60;1.23;;;23.10;1.00;;;;;;5044080;28;20172;-82
2022/09/03 11:25:17;;;;;;;1.53;1.37;;;23.20;1.00;;;;;;5045275;28;20685;-83
2022/09/03 11:27:46;;;;;;;1.13;1.00;;;23.10;1.00;;;;;;5043217;28;20231;-83
2022/09/03 11:30:22;;;;;;;3.67;1.60;;;23.10;1.00;;;;;;5044474;28;20175;-82
2022/09/03 11:33:08;;;;;;;1.40;1.13;;;23.10;1.00;;;;;;5043344;28;20160;-82
2022/09/03 11:35:33;;;;;;;3.87;1.87;;;23.20;1.00;;;;;;5044549;28;20188;-82
2022/09/03 11:38:04;;;;;;;3.43;1.30;;;23.20;1.00;;;;;;5044070;28;20181;-82
2022/09/03 11:40:56;;;;;;;4.30;1.20;;;23.20;1.00;;;;;;5045350;28;20184;-82
2022/09/03 11:43:28;;;;;;;1.60;1.40;;;23.40;1.00;;;;;;5042813;28;20164;-82
2022/09/03 11:46:22;;;;;;;1.97;1.40;;;23.50;1.00;;;;;;5043248;28;20200;-82
2022/09/03 11:48:54;;;;;;;3.77;1.40;;;23.60;1.00;;;;;;5044922;28;20267;-82
2022/09/03 11:51:31;;;;;;;2.10;1.30;;;23.50;1.00;;;;;;5059720;28;20184;-82
2022/09/03 11:53:56;;;;;;;1.77;1.17;;;23.70;1.00;;;;;;5042949;28;20182;-81
2022/09/03 11:56:22;;;;;;;2.63;1.47;;;23.80;1.00;;;;;;5042285;28;20291;-82
2022/09/03 11:59:15;;;;;;;1.50;1.03;;;23.60;1.00;;;;;;5041153;28;20210;-82
2022/09/03 12:01:46;;;;;;;2.63;1.17;;;23.80;99.90;;;;;;5042146;28;20240;-82
2022/09/03 12:04:16;;;;;;;1.20;1.10;;;23.90;99.90;;;;;;5040335;28;20171;-82
2022/09/03 12:07:25;;;;;;;5.23;1.10;;;23.90;99.90;;;;;;5040610;28;20192;-82
2022/09/03 12:10:06;;;;;;;2.67;1.10;;;24.00;99.90;;;;;;5057093;28;20630;-82
2022/09/03 12:12:47;;;;;;;2.00;1.40;;;24.00;99.90;;;;;;5042491;28;20689;-83
2022/09/03 12:15:55;;;;;;;1.55;1.20;;;24.00;99.90;;;;;;5043538;28;20239;-83
2022/09/03 12:18:24;;;;;;;1.20;1.00;;;24.00;99.90;;;;;;5041151;28;20160;-82
2022/09/03 12:20:58;;;;;;;1.10;0.95;;;24.10;99.90;;;;;;5041065;28;20227;-82
2022/09/03 12:23:41;;;;;;;1.23;1.08;;;24.20;99.90;;;;;;5041148;28;20177;-82
2022/09/03 12:26:13;;;;;;;1.38;1.10;;;24.30;99.90;;;;;;5039485;28;20188;-82
2022/09/03 12:28:42;;;;;;;1.65;1.20;;;24.40;99.90;;;;;;5055731;28;20211;-82
2022/09/03 12:31:24;;;;;;;4.00;1.27;;;24.40;99.90;;;;;;5040554;28;20194;-82
2022/09/03 12:33:54;;;;;;;1.20;1.10;;;24.50;99.90;;;;;;5040482;28;20680;-82
2022/09/03 12:36:21;;;;;;;1.13;1.02;;;24.50;99.90;;;;;;5041309;28;20203;-82
2022/09/03 12:38:47;;;;;;;1.90;1.17;;;24.60;99.90;;;;;;5043136;28;20172;-82
2022/09/03 12:41:52;;;;;;;2.80;1.05;;;24.50;99.90;;;;;;5044012;28;20207;-82
2022/09/03 12:44:46;;;;;;;2.65;1.20;;;24.50;99.90;;;;;;5043648;28;20160;-82
2022/09/03 12:47:17;;;;;;;2.25;1.40;;;24.50;99.90;;;;;;5043136;28;20243;-83
2022/09/03 12:49:45;;;;;;;2.22;0.95;;;24.40;99.90;;;;;;5041816;28;20573;-82
2022/09/03 12:52:35;;;;;;;1.73;1.20;;;24.50;99.90;;;;;;5041601;28;20176;-82
2022/09/03 12:55:37;;;;;;;1.95;1.30;;;24.40;99.90;;;;;;5042477;28;20226;-82
2022/09/03 12:58:11;;;;;;;2.97;1.00;;;24.30;99.90;;;;;;5041806;28;20611;-82
2022/09/03 13:00:49;;;;;;;1.35;1.20;;;24.30;99.90;;;;;;5043442;28;20744;-82
2022/09/03 13:03:28;;;;;;;1.33;1.20;;;24.20;99.90;;;;;;5044289;28;20160;-82
2022/09/03 13:05:58;;;;;;;1.65;1.40;;;24.20;99.90;;;;;;5038268;28;20207;-83
2022/09/03 13:08:28;;;;;;;1.33;1.23;;;24.20;99.90;;;;;;5022282;28;20201;-82
2022/09/03 13:10:57;;;;;;;1.25;1.15;;;24.20;99.90;;;;;;5021475;28;20157;-82
2022/09/03 13:13:30;;;;;;;2.27;1.30;;;24.20;99.90;;;;;;5021945;28;20187;-82
2022/09/03 13:16:08;;;;;;;2.55;1.67;;;24.30;99.90;;;;;;5022747;28;20180;-82
2022/09/03 13:18:45;;;;;;;2.30;1.52;;;24.30;99.90;;;;;;5022246;28;20227;-82
2022/09/03 13:21:26;;;;;;;2.22;1.73;;;24.30;1.00;;;;;;5035128;28;20259;-82
2022/09/03 13:23:54;;;;;;;2.92;1.30;;;24.20;1.00;;;;;;5040718;28;20532;-82
2022/09/03 13:26:45;;;;;;;1.63;1.50;;;24.30;1.00;;;;;;5041498;28;20192;-82
2022/09/03 13:29:32;;;;;;;2.17;1.70;;;24.40;1.00;;;;;;5041401;28;20199;-82